Aeroporto :
LOGIN :

Iscrizione | Disclaimer

   EN    FR    IT 

 










Sommario :    VFR   VFR Marginale   IFR   IFR Intensivo   IFR Molto Intensivo
Visibilità : 
Base nubi : 
>= 8 km
>= 3000ft
5 / 8 km
1000 / 3000 ft
1500m / 5 km
500 / 1000 ft
800 / 1500m
200 / 500 ft
< 800m
< 200 ft
Simboli :   Temporali  Nebbia  Neve Forte  Precipitazioni Forti  Vento > 20 kt
SIGMETs :   Varie  Temporali  Ghiacco  Turbolenza  Onda orograficha  Ceneri Vulcaniche






- Altitudine del aeroporto : 675 ft
- Codice IATA : RZE


EPRZ - Rzeszow-Jasionka

ULTIMO METAR :
  • 271130Z 28012KT 250V310 9999 -SHGS FEW024CB BKN035 04/M02 Q1003

METARs OBSOLETI :
  • 271100Z 26013KT 9999 FEW024TCU BKN035 05/M02 Q1003
  • 271030Z 27013KT 240V300 9999 BKN030 04/M03 Q1003
  • 271000Z 27012KT 9999 BKN025 04/M02 Q1003
  • 270930Z 30012KT 9999 SCT020 BKN040 03/M02 Q1003
  • 270900Z 28015KT 9999 BKN020 03/M01 Q1002

TAF TAF EPRZ
Valido dal 27 a 12 ore il 28 a 12 ore UTC


271130Z 2712/2812 27013KT 9999 BKN025
TEMPO 2712/2718 28016G27KT 2000 SHSNRA SHSN BKN006 BKN013CB
PROB30
TEMPO 2712/2718 1000 TSGS BKN004 BKN009CB
BECMG 2718/2720 18010KT
BECMG 2803/2806 2000 SN BKN004 OVC010



MetMap, La meteo Aeronautica in un colpo d'occhio ! - Copyright ORBIFLY Dicembre 2007 - Disclaimer

ORBIFLY MET'MAP TEAM :

Programmazione e sviluppo : Alexandra Zaïnal
Concezione : Baudouin d'Aumeries
Aiuto per la programmazione : Marc-Olivier Méhu
Supporto tecnico e logistico : Manuel Goepfert
Aiuto per la traduzione : Arnaldo La Scala

Contatto : metmap@orbifly.com




FONTI E CREDITI :

   NOAA